createdAt,value
2019-01-24T00:01:48.215Z,-3.90
2019-01-24T00:04:17.609Z,-3.90
2019-01-24T00:06:46.989Z,-3.90
2019-01-24T00:09:16.383Z,-4.00
2019-01-24T00:11:48.394Z,-4.20
2019-01-24T00:14:18.113Z,-4.30
2019-01-24T00:16:47.708Z,-4.50
2019-01-24T00:19:17.140Z,-4.50
2019-01-24T00:21:46.511Z,-4.50
2019-01-24T00:24:15.793Z,-4.50
2019-01-24T00:26:45.166Z,-4.60
2019-01-24T00:29:14.594Z,-4.60
2019-01-24T00:31:43.969Z,-4.60
2019-01-24T00:34:13.245Z,-4.60
2019-01-24T00:36:42.695Z,-4.60
2019-01-24T00:39:12.078Z,-4.40
2019-01-24T00:41:41.476Z,-4.30
2019-01-24T00:44:10.748Z,-4.40
2019-01-24T00:46:40.328Z,-4.40
2019-01-24T00:49:09.758Z,-4.30
2019-01-24T00:51:39.071Z,-4.20
2019-01-24T00:54:08.355Z,-4.20
2019-01-24T00:56:37.719Z,-4.40
2019-01-24T00:59:07.070Z,-4.60
2019-01-24T01:01:36.441Z,-4.70
2019-01-24T01:04:05.891Z,-4.80
2019-01-24T01:06:35.295Z,-4.80
2019-01-24T01:09:07.657Z,-4.90
2019-01-24T01:11:37.017Z,-4.80
2019-01-24T01:14:06.589Z,-4.80
2019-01-24T01:16:35.871Z,-4.90
2019-01-24T01:19:05.513Z,-4.90
2019-01-24T01:21:34.898Z,-4.90
2019-01-24T01:24:04.510Z,-5.00
2019-01-24T01:26:33.886Z,-5.00
2019-01-24T01:29:03.187Z,-5.10
2019-01-24T01:31:32.596Z,-5.10
2019-01-24T01:34:01.966Z,-5.10
2019-01-24T01:36:31.268Z,-5.10
2019-01-24T01:39:00.599Z,-5.10
2019-01-24T01:41:29.975Z,-5.00
2019-01-24T01:43:59.353Z,-5.10
2019-01-24T01:46:28.718Z,-5.10
2019-01-24T01:48:58.218Z,-5.20
2019-01-24T01:51:27.714Z,-5.20
2019-01-24T01:53:57.236Z,-5.30
2019-01-24T01:56:26.661Z,-5.40
2019-01-24T01:58:56.822Z,-5.40
2019-01-24T02:01:26.576Z,-5.30
2019-01-24T02:03:55.855Z,-5.20
2019-01-24T02:06:25.267Z,-5.20
2019-01-24T02:08:54.711Z,-5.30
2019-01-24T02:11:24.118Z,-5.20
2019-01-24T02:13:53.493Z,-5.20
2019-01-24T02:16:22.954Z,-5.20
2019-01-24T02:18:52.254Z,-5.10
2019-01-24T02:21:21.583Z,-5.10
2019-01-24T02:23:50.903Z,-5.10
2019-01-24T02:26:20.275Z,-5.00
2019-01-24T02:28:49.624Z,-5.00
2019-01-24T02:31:21.677Z,-4.90
2019-01-24T02:33:50.946Z,-4.80
2019-01-24T02:36:20.249Z,-4.80
2019-01-24T02:38:49.531Z,-4.80
2019-01-24T02:41:18.884Z,-4.80
2019-01-24T02:43:48.172Z,-4.70
2019-01-24T02:46:17.466Z,-4.60
2019-01-24T02:48:46.714Z,-4.60
2019-01-24T02:51:15.959Z,-4.60
2019-01-24T02:53:45.222Z,-4.60
2019-01-24T02:56:14.546Z,-4.60
2019-01-24T02:58:43.886Z,-4.60
2019-01-24T03:01:13.299Z,-4.60
2019-01-24T03:03:42.600Z,-4.50
2019-01-24T03:06:11.899Z,-4.60
2019-01-24T03:08:41.198Z,-4.60
2019-01-24T03:11:10.552Z,-4.60
2019-01-24T03:13:39.872Z,-4.60
2019-01-24T03:16:09.361Z,-4.60
2019-01-24T03:18:38.728Z,-4.60
2019-01-24T03:21:08.009Z,-4.50
2019-01-24T03:23:37.425Z,-4.50
2019-01-24T03:26:06.814Z,-4.40
2019-01-24T03:28:36.211Z,-4.30
2019-01-24T03:31:05.498Z,-4.30
2019-01-24T03:33:34.896Z,-4.20
2019-01-24T03:36:04.261Z,-4.20
2019-01-24T03:38:35.154Z,-4.20
2019-01-24T03:41:04.681Z,-4.30
2019-01-24T03:43:34.041Z,-4.30
2019-01-24T03:46:03.361Z,-4.20
2019-01-24T03:48:32.857Z,-4.10
2019-01-24T03:51:02.232Z,-4.20
2019-01-24T03:53:31.553Z,-4.20
2019-01-24T03:56:00.842Z,-4.20
2019-01-24T03:58:30.115Z,-4.10
2019-01-24T04:00:59.451Z,-4.00
2019-01-24T04:03:28.726Z,-4.10
2019-01-24T04:05:58.046Z,-4.10
2019-01-24T04:08:27.336Z,-4.00
2019-01-24T04:10:56.628Z,-4.10
2019-01-24T04:13:25.896Z,-4.10
2019-01-24T04:15:55.284Z,-4.10
2019-01-24T04:18:24.684Z,-4.10
2019-01-24T04:20:54.101Z,-4.10
2019-01-24T04:23:23.511Z,-4.00
2019-01-24T04:25:52.889Z,-4.10
2019-01-24T04:28:22.290Z,-4.10
2019-01-24T04:30:51.590Z,-4.00
2019-01-24T04:33:21.019Z,-4.10
2019-01-24T04:35:50.406Z,-4.00
2019-01-24T04:38:19.837Z,-4.00
2019-01-24T04:40:49.306Z,-4.10
2019-01-24T04:43:18.544Z,-4.10
2019-01-24T04:45:50.967Z,-4.00
2019-01-24T04:48:21.591Z,-3.90
2019-01-24T04:50:50.898Z,-3.90
2019-01-24T04:53:20.166Z,-3.90
2019-01-24T04:55:52.467Z,-3.80
2019-01-24T04:58:21.752Z,-3.90
2019-01-24T05:00:50.980Z,-3.80
2019-01-24T05:03:20.307Z,-3.70
2019-01-24T05:05:49.686Z,-3.70
2019-01-24T05:08:18.987Z,-3.70
2019-01-24T05:10:48.383Z,-3.70
2019-01-24T05:13:19.046Z,-3.80
2019-01-24T05:15:48.380Z,-3.80
2019-01-24T05:18:17.765Z,-3.80
2019-01-24T05:20:47.151Z,-3.80
2019-01-24T05:23:16.522Z,-3.70
2019-01-24T05:25:45.922Z,-3.70
2019-01-24T05:28:15.386Z,-3.60
2019-01-24T05:30:44.738Z,-3.60
2019-01-24T05:33:14.124Z,-3.70
2019-01-24T05:35:43.526Z,-3.70
2019-01-24T05:38:12.953Z,-3.80
2019-01-24T05:40:42.379Z,-3.80
2019-01-24T05:43:13.369Z,-3.80
2019-01-24T05:45:42.665Z,-3.70
2019-01-24T05:48:12.285Z,-3.60
2019-01-24T05:50:41.613Z,-3.60
2019-01-24T05:53:12.639Z,-3.60
2019-01-24T05:55:42.722Z,-3.50
2019-01-24T05:58:12.070Z,-3.40
2019-01-24T06:00:45.602Z,-3.50
2019-01-24T06:03:14.914Z,-3.50
2019-01-24T06:05:44.138Z,-3.60
2019-01-24T06:08:13.577Z,-3.60
2019-01-24T06:10:42.857Z,-3.50
2019-01-24T06:13:12.168Z,-3.50
2019-01-24T06:15:41.406Z,-3.50
2019-01-24T06:18:10.681Z,-3.40
2019-01-24T06:20:40.015Z,-3.30
2019-01-24T06:23:09.254Z,-3.40
2019-01-24T06:25:38.580Z,-3.40
2019-01-24T06:28:07.918Z,-3.40
2019-01-24T06:30:37.151Z,-3.30
2019-01-24T06:33:06.399Z,-3.30
2019-01-24T06:35:35.687Z,-3.30
2019-01-24T06:38:04.942Z,-3.30
2019-01-24T06:40:37.213Z,-3.30
2019-01-24T06:43:06.457Z,-3.40
2019-01-24T06:45:35.717Z,-3.40
2019-01-24T06:48:05.331Z,-3.40
2019-01-24T06:50:34.585Z,-3.30
2019-01-24T06:53:03.968Z,-3.30
2019-01-24T06:55:33.492Z,-3.30
2019-01-24T06:58:02.747Z,-3.30
2019-01-24T07:00:32.038Z,-3.10
2019-01-24T07:03:01.272Z,-3.10
2019-01-24T07:05:30.508Z,-3.10
2019-01-24T07:07:59.807Z,-3.10
2019-01-24T07:10:29.489Z,-3.10
2019-01-24T07:12:58.794Z,-3.00
2019-01-24T07:15:28.147Z,-2.90
2019-01-24T07:17:57.414Z,-2.80
2019-01-24T07:20:26.811Z,-2.90
2019-01-24T07:22:56.174Z,-2.90
2019-01-24T07:25:27.266Z,-3.00
2019-01-24T07:27:56.514Z,-3.00
2019-01-24T07:30:25.853Z,-3.00
2019-01-24T07:32:55.159Z,-3.00
2019-01-24T07:35:24.439Z,-2.90
2019-01-24T07:37:53.899Z,-2.90
2019-01-24T07:40:23.156Z,-2.90
2019-01-24T07:42:52.514Z,-2.90
2019-01-24T07:45:28.076Z,-2.80
2019-01-24T07:47:57.332Z,-2.80
2019-01-24T07:50:26.646Z,-2.80
2019-01-24T07:52:55.989Z,-2.80
2019-01-24T07:55:25.294Z,-2.80
2019-01-24T07:57:54.748Z,-2.80
2019-01-24T08:00:25.882Z,-2.80
2019-01-24T08:02:55.253Z,-2.80
2019-01-24T08:05:25.133Z,-2.80
2019-01-24T08:07:54.429Z,-2.70
2019-01-24T08:10:23.973Z,-2.70
2019-01-24T08:12:53.322Z,-2.70
2019-01-24T08:15:23.026Z,-2.60
2019-01-24T08:17:52.382Z,-2.60
2019-01-24T08:20:23.668Z,-2.60
2019-01-24T08:22:52.987Z,-2.60
2019-01-24T08:25:22.967Z,-2.60
2019-01-24T08:27:52.227Z,-2.70
2019-01-24T08:30:23.765Z,-2.50
2019-01-24T08:32:53.026Z,-2.50
2019-01-24T08:35:22.278Z,-2.60
2019-01-24T08:37:51.586Z,-2.50
2019-01-24T08:40:20.899Z,-2.40
2019-01-24T08:42:50.189Z,-2.50
2019-01-24T08:45:19.533Z,-2.30
2019-01-24T08:47:48.875Z,-2.30
2019-01-24T08:50:19.888Z,-2.40
2019-01-24T08:52:49.116Z,-2.30
2019-01-24T08:55:29.792Z,-2.40
2019-01-24T08:57:58.897Z,-2.40
2019-01-24T09:00:28.086Z,-2.20
2019-01-24T09:02:57.228Z,-2.20
2019-01-24T09:05:26.314Z,-2.10
2019-01-24T09:07:55.444Z,-2.10
2019-01-24T09:10:29.649Z,-2.20
2019-01-24T09:12:58.758Z,-2.10
2019-01-24T09:15:29.241Z,-2.20
2019-01-24T09:17:58.403Z,-2.00
2019-01-24T09:20:27.440Z,-1.90
2019-01-24T09:22:56.605Z,-2.10
2019-01-24T09:25:25.604Z,-2.00
2019-01-24T09:27:54.882Z,-2.10
2019-01-24T09:30:25.550Z,-2.20
2019-01-24T09:32:54.858Z,-2.10
2019-01-24T09:35:24.247Z,-2.00
2019-01-24T09:37:53.689Z,-2.00
2019-01-24T09:40:23.329Z,-1.90
2019-01-24T09:42:52.618Z,-1.80
2019-01-24T09:45:27.197Z,-1.80
2019-01-24T09:47:58.759Z,-1.80
2019-01-24T09:50:28.333Z,-1.70
2019-01-24T09:52:57.735Z,-1.70
2019-01-24T09:55:27.452Z,-1.80
2019-01-24T09:57:56.718Z,-1.90
2019-01-24T10:00:34.095Z,-1.60
2019-01-24T10:03:03.953Z,-1.80
2019-01-24T10:05:33.309Z,-1.80
2019-01-24T10:08:02.675Z,-1.80
2019-01-24T10:10:31.982Z,-1.80
2019-01-24T10:13:01.358Z,-1.70
2019-01-24T10:15:30.890Z,-1.60
2019-01-24T10:18:00.162Z,-1.70
2019-01-24T10:20:29.581Z,-1.70
2019-01-24T10:22:58.935Z,-1.70
2019-01-24T10:25:38.865Z,-1.60
2019-01-24T10:28:09.058Z,-1.70
2019-01-24T10:30:42.645Z,-1.70
2019-01-24T10:33:09.429Z,-1.40
2019-01-24T10:35:38.788Z,-1.40
2019-01-24T10:38:08.202Z,-1.50
2019-01-24T10:40:38.423Z,-1.40
2019-01-24T10:43:07.674Z,-1.40
2019-01-24T10:45:37.091Z,-1.60
2019-01-24T10:48:06.667Z,-1.70
2019-01-24T10:50:35.929Z,-1.60
2019-01-24T10:53:05.265Z,-1.50
2019-01-24T10:55:34.615Z,-1.50
2019-01-24T10:58:05.430Z,-1.30
2019-01-24T11:00:38.141Z,-1.40
2019-01-24T11:03:10.059Z,-1.60
2019-01-24T11:05:39.349Z,-1.50
2019-01-24T11:08:08.960Z,-1.30
2019-01-24T11:10:38.434Z,-1.50
2019-01-24T11:13:07.713Z,-1.50
2019-01-24T11:15:37.023Z,-1.70
2019-01-24T11:18:07.450Z,-1.60
2019-01-24T11:20:36.909Z,-1.50
2019-01-24T11:23:06.497Z,-1.60
2019-01-24T11:25:35.890Z,-1.30
2019-01-24T11:28:05.345Z,-1.30
2019-01-24T11:30:34.665Z,-1.20
2019-01-24T11:33:04.668Z,-1.40
2019-01-24T11:35:34.724Z,-1.40
2019-01-24T11:38:03.872Z,-1.50
2019-01-24T11:40:32.951Z,-1.60
2019-01-24T11:43:02.086Z,-1.50
2019-01-24T11:45:33.653Z,-1.10
2019-01-24T11:48:02.762Z,-1.10
2019-01-24T11:50:31.787Z,-1.40
2019-01-24T11:53:01.113Z,-1.20
2019-01-24T11:55:30.198Z,-1.30
2019-01-24T11:57:59.187Z,-1.20
2019-01-24T12:00:33.180Z,-1.10
2019-01-24T12:03:02.248Z,-1.00
2019-01-24T12:05:31.223Z,-0.80
2019-01-24T12:08:00.260Z,-0.90
2019-01-24T12:10:29.488Z,-1.20
2019-01-24T12:12:58.497Z,-1.30
2019-01-24T12:15:27.707Z,-1.30
2019-01-24T12:17:56.862Z,-1.20
2019-01-24T12:20:26.852Z,-1.10
2019-01-24T12:22:56.241Z,-1.20
2019-01-24T12:25:25.296Z,-1.30
2019-01-24T12:27:54.383Z,-1.30
2019-01-24T12:30:32.073Z,-1.30
2019-01-24T12:33:01.450Z,-1.40
2019-01-24T12:35:30.564Z,-1.30
2019-01-24T12:38:01.239Z,-1.30
2019-01-24T12:40:30.327Z,-1.40
2019-01-24T12:42:59.239Z,-1.20
2019-01-24T12:45:30.203Z,-1.30
2019-01-24T12:47:59.296Z,-1.40
2019-01-24T12:50:28.463Z,-1.40
2019-01-24T12:52:57.596Z,-1.40
2019-01-24T12:55:26.629Z,-1.40
2019-01-24T12:57:55.816Z,-1.30
2019-01-24T13:00:30.423Z,-1.30
2019-01-24T13:02:59.470Z,-1.30
2019-01-24T13:05:28.687Z,-1.50
2019-01-24T13:07:57.826Z,-1.30
2019-01-24T13:10:27.902Z,-1.40
2019-01-24T13:12:57.072Z,-1.40
2019-01-24T13:15:27.867Z,-1.40
2019-01-24T13:17:57.090Z,-1.50
2019-01-24T13:20:26.252Z,-1.20
2019-01-24T13:22:55.373Z,-1.10
2019-01-24T13:25:29.778Z,-1.20
2019-01-24T13:27:58.992Z,-1.40
2019-01-24T13:30:30.518Z,-1.40
2019-01-24T13:33:00.438Z,-1.40
2019-01-24T13:35:29.872Z,-1.50
2019-01-24T13:37:58.934Z,-1.50
2019-01-24T13:40:32.880Z,-1.40
2019-01-24T13:43:03.160Z,-1.30
2019-01-24T13:45:39.855Z,-1.40
2019-01-24T13:48:09.045Z,-1.20
2019-01-24T13:50:38.354Z,-1.10
2019-01-24T13:53:07.559Z,-1.40
2019-01-24T13:55:36.728Z,-1.50
2019-01-24T13:58:06.506Z,-1.60
2019-01-24T14:00:37.526Z,-1.60
2019-01-24T14:03:28.071Z,-1.50
2019-01-24T14:05:57.153Z,-1.40
2019-01-24T14:08:26.281Z,-1.60
2019-01-24T14:10:55.407Z,-1.50
2019-01-24T14:13:24.464Z,-1.40
2019-01-24T14:15:56.850Z,-1.60
2019-01-24T14:18:25.966Z,-1.60
2019-01-24T14:20:56.984Z,-1.70
2019-01-24T14:23:26.112Z,-1.70
2019-01-24T14:25:57.894Z,-1.60
2019-01-24T14:28:27.639Z,-1.70
2019-01-24T14:30:56.822Z,-1.60
2019-01-24T14:33:25.839Z,-1.60
2019-01-24T14:35:56.023Z,-1.60
2019-01-24T14:38:25.221Z,-1.60
2019-01-24T14:40:54.315Z,-1.70
2019-01-24T14:43:23.434Z,-2.00
2019-01-24T14:45:52.500Z,-1.90
2019-01-24T14:48:23.965Z,-1.90
2019-01-24T14:50:53.001Z,-1.80
2019-01-24T14:53:22.389Z,-1.80
2019-01-24T14:55:53.847Z,-1.90
2019-01-24T14:58:22.965Z,-2.00
2019-01-24T15:01:31.285Z,-2.00
2019-01-24T15:04:03.540Z,-2.00
2019-01-24T15:06:32.598Z,-2.00
2019-01-24T15:09:01.686Z,-2.00
2019-01-24T15:11:30.807Z,-1.80
2019-01-24T15:13:59.783Z,-1.90
2019-01-24T15:16:28.813Z,-1.90
2019-01-24T15:18:57.853Z,-2.10
2019-01-24T15:21:26.771Z,-1.90
2019-01-24T15:23:55.770Z,-2.00
2019-01-24T15:26:24.857Z,-2.00
2019-01-24T15:28:53.843Z,-2.10
2019-01-24T15:31:22.846Z,-2.20
2019-01-24T15:33:51.934Z,-2.20
2019-01-24T15:36:20.970Z,-2.20
2019-01-24T15:38:50.004Z,-2.10
2019-01-24T15:41:19.007Z,-2.10
2019-01-24T15:43:48.111Z,-2.20
2019-01-24T15:46:17.102Z,-2.20
2019-01-24T15:48:46.169Z,-2.20
2019-01-24T15:51:15.250Z,-2.20
2019-01-24T15:53:44.364Z,-2.20
2019-01-24T15:56:13.493Z,-2.20
2019-01-24T15:58:42.890Z,-2.30
2019-01-24T16:01:12.365Z,-2.20
2019-01-24T16:03:43.583Z,-2.20
2019-01-24T16:06:13.002Z,-2.40
2019-01-24T16:08:42.293Z,-2.40
2019-01-24T16:11:11.314Z,-2.40
2019-01-24T16:13:40.411Z,-2.30
2019-01-24T16:16:09.699Z,-2.30
2019-01-24T16:18:38.791Z,-2.40
2019-01-24T16:21:07.919Z,-2.40
2019-01-24T16:23:36.954Z,-2.50
2019-01-24T16:26:06.314Z,-2.50
2019-01-24T16:28:35.364Z,-2.50
2019-01-24T16:31:04.558Z,-2.50
2019-01-24T16:33:33.644Z,-2.40
2019-01-24T16:36:02.772Z,-2.40
2019-01-24T16:38:31.804Z,-2.30
2019-01-24T16:41:00.973Z,-2.30
2019-01-24T16:43:30.075Z,-2.50
2019-01-24T16:49:05.967Z,-2.60
2019-01-24T16:51:35.060Z,-2.50
2019-01-24T16:54:04.197Z,-2.50
2019-01-24T16:56:33.415Z,-2.60
2019-01-24T16:59:02.509Z,-2.50
2019-01-24T17:01:31.537Z,-2.60
2019-01-24T17:04:00.593Z,-2.70
2019-01-24T17:06:29.628Z,-2.80
2019-01-24T17:08:58.802Z,-2.80
2019-01-24T17:11:27.928Z,-2.80
2019-01-24T17:13:56.984Z,-2.70
2019-01-24T17:16:26.088Z,-2.80
2019-01-24T17:18:55.218Z,-2.70
2019-01-24T17:21:24.249Z,-2.70
2019-01-24T17:23:55.668Z,-2.70
2019-01-24T17:26:26.044Z,-2.70
2019-01-24T17:28:55.233Z,-2.70
2019-01-24T17:31:24.310Z,-2.70
2019-01-24T17:33:53.364Z,-2.80
2019-01-24T17:36:22.449Z,-2.70
2019-01-24T17:38:51.412Z,-2.80
2019-01-24T17:41:20.526Z,-2.80
2019-01-24T17:43:49.689Z,-2.60
2019-01-24T17:46:21.709Z,-2.70
2019-01-24T17:48:52.984Z,-2.80
2019-01-24T17:51:23.238Z,-2.80
2019-01-24T17:53:52.356Z,-2.90
2019-01-24T17:56:21.621Z,-2.90
2019-01-24T17:58:50.724Z,-2.90
2019-01-24T18:01:20.052Z,-2.90
2019-01-24T18:03:49.797Z,-2.90
2019-01-24T18:06:19.000Z,-2.90
2019-01-24T18:08:48.132Z,-2.90
2019-01-24T18:11:17.139Z,-3.00
2019-01-24T18:13:46.369Z,-2.90
2019-01-24T18:16:15.631Z,-2.90
2019-01-24T18:18:44.660Z,-2.80
2019-01-24T18:21:13.638Z,-2.90
2019-01-24T18:23:42.772Z,-2.90
2019-01-24T18:26:11.758Z,-2.90
2019-01-24T18:28:40.808Z,-2.90
2019-01-24T18:31:09.829Z,-2.90
2019-01-24T18:33:40.884Z,-2.90
2019-01-24T18:36:10.617Z,-2.90
2019-01-24T18:38:41.862Z,-2.90
2019-01-24T18:41:10.721Z,-2.90
2019-01-24T18:43:39.942Z,-3.00
2019-01-24T18:46:09.066Z,-3.00
2019-01-24T18:48:38.096Z,-3.00
2019-01-24T18:51:07.413Z,-3.00
2019-01-24T18:53:36.506Z,-3.00
2019-01-24T18:56:05.729Z,-3.00
2019-01-24T18:58:35.062Z,-3.00
2019-01-24T19:01:04.488Z,-3.00
2019-01-24T19:03:34.777Z,-3.00
2019-01-24T19:06:03.877Z,-3.00
2019-01-24T19:08:32.900Z,-2.90
2019-01-24T19:11:01.941Z,-2.90
2019-01-24T19:13:31.034Z,-2.90
2019-01-24T19:16:00.177Z,-3.00
2019-01-24T19:18:47.401Z,-2.90
2019-01-24T19:21:16.497Z,-3.00
2019-01-24T19:23:45.431Z,-3.00
2019-01-24T19:29:43.689Z,-3.10
2019-01-24T19:32:12.713Z,-3.10
2019-01-24T19:34:42.129Z,-3.10
2019-01-24T19:37:11.190Z,-3.10
2019-01-24T19:39:40.251Z,-3.00
2019-01-24T19:42:09.253Z,-3.00
2019-01-24T19:44:38.289Z,-2.90
2019-01-24T19:47:07.420Z,-3.00
2019-01-24T19:49:36.486Z,-3.00
2019-01-24T19:52:07.175Z,-3.10
2019-01-24T19:54:36.212Z,-3.10
2019-01-24T19:57:06.991Z,-3.10
2019-01-24T19:59:36.138Z,-3.10
2019-01-24T20:02:05.646Z,-3.10
2019-01-24T20:05:37.500Z,-3.10
2019-01-24T20:11:28.344Z,-3.10
2019-01-24T20:13:57.437Z,-3.10
2019-01-24T20:16:26.458Z,-3.10
2019-01-24T20:18:55.597Z,-3.10
2019-01-24T20:22:21.571Z,-3.00
2019-01-24T20:24:50.670Z,-3.00
2019-01-24T20:27:20.688Z,-3.10
2019-01-24T20:29:50.024Z,-3.10
2019-01-24T20:32:19.772Z,-3.00
2019-01-24T20:34:52.136Z,-3.10
2019-01-24T20:37:21.247Z,-3.10
2019-01-24T20:39:50.210Z,-3.00
2019-01-24T20:42:19.350Z,-3.00
2019-01-24T20:44:48.570Z,-2.90
2019-01-24T20:47:17.579Z,-3.00
2019-01-24T20:50:52.689Z,-3.00
2019-01-24T20:53:26.053Z,-3.00
2019-01-24T20:55:55.044Z,-3.10
2019-01-24T20:58:24.105Z,-3.10
2019-01-24T21:00:53.223Z,-3.20
2019-01-24T21:03:22.217Z,-3.20
2019-01-24T21:05:51.348Z,-3.20
2019-01-24T21:08:20.383Z,-3.10
2019-01-24T21:10:49.396Z,-3.10
2019-01-24T21:13:18.437Z,-3.10
2019-01-24T21:15:47.444Z,-3.20
2019-01-24T21:18:16.500Z,-3.20
2019-01-24T21:20:45.576Z,-3.20
2019-01-24T21:23:14.636Z,-3.20
2019-01-24T21:25:46.236Z,-3.20
2019-01-24T21:28:15.291Z,-3.20
2019-01-24T21:30:44.329Z,-3.20
2019-01-24T21:33:13.535Z,-3.10
2019-01-24T21:35:42.485Z,-3.10
2019-01-24T21:38:12.175Z,-2.90
2019-01-24T21:40:41.340Z,-3.10
2019-01-24T21:43:10.456Z,-3.20
2019-01-24T21:45:39.534Z,-3.10
2019-01-24T21:48:08.852Z,-3.00
2019-01-24T21:50:37.957Z,-2.90
2019-01-24T21:53:07.361Z,-2.90
2019-01-24T21:55:36.570Z,-3.00
2019-01-24T21:58:07.250Z,-3.10
2019-01-24T22:00:36.291Z,-3.10
2019-01-24T22:03:06.244Z,-3.20
2019-01-24T22:05:35.372Z,-3.20
2019-01-24T22:08:04.743Z,-3.20
2019-01-24T22:10:33.837Z,-3.20
2019-01-24T22:13:02.957Z,-3.20
2019-01-24T22:15:31.972Z,-3.20
2019-01-24T22:18:01.002Z,-3.20
2019-01-24T22:20:30.059Z,-3.30
2019-01-24T22:22:59.118Z,-3.40
2019-01-24T22:25:33.163Z,-3.30
2019-01-24T22:28:02.230Z,-3.40
2019-01-24T22:30:52.757Z,-3.40
2019-01-24T22:33:21.819Z,-3.40
2019-01-24T22:35:50.822Z,-3.40
2019-01-24T22:38:19.935Z,-3.30
2019-01-24T22:40:48.910Z,-3.40
2019-01-24T22:43:18.102Z,-3.30
2019-01-24T22:45:47.104Z,-3.30
2019-01-24T22:48:16.074Z,-3.20
2019-01-24T22:50:45.008Z,-3.20
2019-01-24T22:53:14.036Z,-3.20
2019-01-24T22:55:43.010Z,-3.20
2019-01-24T22:58:12.089Z,-3.20
2019-01-24T23:01:21.041Z,-3.30
2019-01-24T23:04:02.893Z,-3.40
2019-01-24T23:06:31.927Z,-3.40
2019-01-24T23:09:01.095Z,-3.40
2019-01-24T23:11:30.116Z,-3.40
2019-01-24T23:13:59.063Z,-3.30
2019-01-24T23:16:28.059Z,-3.30
2019-01-24T23:18:57.289Z,-3.40
2019-01-24T23:21:26.599Z,-3.40
2019-01-24T23:23:55.635Z,-3.30
2019-01-24T23:26:24.697Z,-3.20
2019-01-24T23:28:53.602Z,-3.20
2019-01-24T23:31:22.600Z,-3.30
2019-01-24T23:33:51.768Z,-3.40
2019-01-24T23:36:20.876Z,-3.30
2019-01-24T23:38:49.935Z,-3.30
2019-01-24T23:41:19.128Z,-3.30
2019-01-24T23:43:48.023Z,-3.30
2019-01-24T23:46:17.077Z,-3.20
2019-01-24T23:48:46.162Z,-3.30
2019-01-24T23:51:21.322Z,-3.40
2019-01-24T23:53:50.360Z,-3.30
2019-01-24T23:56:19.440Z,-3.30
2019-01-24T23:58:48.568Z,-3.30
